createdAt,value
2018-03-23T00:01:39.977Z,28.25
2018-03-23T00:04:06.237Z,27.05
2018-03-23T00:06:32.433Z,29.10
2018-03-23T00:08:58.660Z,26.05
2018-03-23T00:11:25.268Z,28.35
2018-03-23T00:13:51.462Z,28.95
2018-03-23T00:16:17.663Z,24.45
2018-03-23T00:18:43.892Z,23.25
2018-03-23T00:21:10.067Z,23.33
2018-03-23T00:23:36.286Z,27.87
2018-03-23T00:26:02.494Z,29.15
2018-03-23T00:28:28.718Z,26.52
2018-03-23T00:30:54.906Z,23.00
2018-03-23T00:33:21.094Z,29.52
2018-03-23T00:35:47.304Z,27.73
2018-03-23T00:38:13.523Z,30.65
2018-03-23T00:40:39.708Z,26.40
2018-03-23T00:43:06.928Z,26.98
2018-03-23T00:45:33.146Z,24.25
2018-03-23T00:47:59.341Z,26.35
2018-03-23T00:50:25.575Z,27.00
2018-03-23T00:52:51.783Z,25.92
2018-03-23T00:55:17.961Z,27.80
2018-03-23T00:57:44.202Z,26.10
2018-03-23T01:00:11.388Z,26.37
2018-03-23T01:02:37.956Z,23.10
2018-03-23T01:05:04.226Z,29.08
2018-03-23T01:07:30.416Z,33.58
2018-03-23T01:09:57.651Z,35.15
2018-03-23T01:12:23.867Z,35.60
2018-03-23T01:14:50.043Z,38.13
2018-03-23T01:17:16.278Z,35.28
2018-03-23T01:19:42.487Z,35.53
2018-03-23T01:22:08.731Z,32.45
2018-03-23T01:24:34.935Z,34.45
2018-03-23T01:27:01.135Z,34.30
2018-03-23T01:29:27.733Z,35.40
2018-03-23T01:31:53.940Z,36.33
2018-03-23T01:34:20.184Z,37.83
2018-03-23T01:36:46.388Z,39.10
2018-03-23T01:39:12.568Z,41.22
2018-03-23T01:41:38.779Z,43.30
2018-03-23T01:44:04.973Z,33.80
2018-03-23T01:46:31.236Z,34.65
2018-03-23T01:48:57.426Z,30.30
2018-03-23T01:51:23.683Z,26.67
2018-03-23T01:53:49.871Z,30.27
2018-03-23T01:56:16.080Z,29.80
2018-03-23T01:58:42.661Z,29.15
2018-03-23T02:01:08.867Z,26.20
2018-03-23T02:03:35.052Z,31.65
2018-03-23T02:06:01.266Z,34.40
2018-03-23T02:08:27.459Z,36.28
2018-03-23T02:10:53.643Z,37.72
2018-03-23T02:13:20.270Z,46.13
2018-03-23T02:15:46.825Z,48.50
2018-03-23T02:18:13.032Z,48.17
2018-03-23T02:20:39.306Z,39.05
2018-03-23T02:23:05.495Z,36.15
2018-03-23T02:25:31.727Z,32.53
2018-03-23T02:27:57.955Z,31.02
2018-03-23T02:30:24.542Z,30.37
2018-03-23T02:32:50.750Z,29.92
2018-03-23T02:35:16.995Z,29.23
2018-03-23T02:37:43.230Z,29.98
2018-03-23T02:40:09.414Z,28.33
2018-03-23T02:42:35.662Z,32.78
2018-03-23T02:45:02.695Z,37.40
2018-03-23T02:47:28.933Z,35.67
2018-03-23T02:49:55.439Z,36.15
2018-03-23T02:52:21.766Z,35.10
2018-03-23T02:54:48.432Z,30.08
2018-03-23T02:57:14.655Z,31.95
2018-03-23T02:59:40.847Z,34.72
2018-03-23T03:02:07.083Z,33.72
2018-03-23T03:04:33.671Z,36.38
2018-03-23T03:06:59.856Z,32.72
2018-03-23T03:09:26.074Z,29.92
2018-03-23T03:11:52.299Z,29.33
2018-03-23T03:14:18.572Z,32.95
2018-03-23T03:16:44.816Z,27.13
2018-03-23T03:19:11.005Z,32.65
2018-03-23T03:21:37.186Z,27.87
2018-03-23T03:24:04.004Z,31.35
2018-03-23T03:26:30.239Z,30.45
2018-03-23T03:28:57.363Z,31.87
2018-03-23T03:31:23.565Z,25.25
2018-03-23T03:33:50.444Z,23.98
2018-03-23T03:36:16.635Z,26.12
2018-03-23T03:38:42.842Z,26.95
2018-03-23T03:41:09.057Z,23.33
2018-03-23T03:43:35.256Z,27.52
2018-03-23T03:46:01.464Z,27.37
2018-03-23T03:48:27.699Z,27.48
2018-03-23T03:50:53.886Z,25.20
2018-03-23T03:53:20.451Z,27.83
2018-03-23T03:55:46.677Z,31.85
2018-03-23T03:58:12.874Z,33.75
2018-03-23T04:00:39.075Z,32.50
2018-03-23T04:03:05.309Z,33.60
2018-03-23T04:05:31.505Z,26.83
2018-03-23T04:07:57.702Z,30.33
2018-03-23T04:10:23.940Z,29.85
2018-03-23T04:12:50.523Z,30.92
2018-03-23T04:15:16.717Z,32.85
2018-03-23T04:17:42.951Z,27.25
2018-03-23T04:20:09.180Z,30.95
2018-03-23T04:22:35.371Z,32.30
2018-03-23T04:25:01.606Z,28.80
2018-03-23T04:27:27.841Z,28.23
2018-03-23T04:29:54.414Z,32.15
2018-03-23T04:32:20.621Z,28.90
2018-03-23T04:34:46.799Z,32.45
2018-03-23T04:37:12.979Z,27.20
2018-03-23T04:39:39.205Z,30.60
2018-03-23T04:42:05.403Z,28.23
2018-03-23T04:44:31.602Z,32.08
2018-03-23T04:46:57.839Z,30.25
2018-03-23T04:49:24.067Z,31.80
2018-03-23T04:51:50.256Z,33.53
2018-03-23T04:54:16.497Z,30.30
2018-03-23T04:56:42.701Z,31.48
2018-03-23T04:59:09.891Z,32.17
2018-03-23T05:01:36.154Z,30.10
2018-03-23T05:04:02.750Z,37.08
2018-03-23T05:06:29.051Z,39.58
2018-03-23T05:08:55.612Z,37.95
2018-03-23T05:11:21.811Z,38.38
2018-03-23T05:13:48.003Z,35.00
2018-03-23T05:16:14.583Z,39.38
2018-03-23T05:18:40.994Z,33.20
2018-03-23T05:21:07.199Z,33.45
2018-03-23T05:23:33.782Z,30.70
2018-03-23T05:26:00.038Z,36.15
2018-03-23T05:28:27.122Z,32.13
2018-03-23T05:30:53.698Z,28.42
2018-03-23T05:33:19.945Z,32.60
2018-03-23T05:35:46.143Z,31.52
2018-03-23T05:38:12.370Z,25.15
2018-03-23T05:40:38.626Z,27.67
2018-03-23T05:43:04.840Z,30.85
2018-03-23T05:45:31.067Z,28.00
2018-03-23T05:47:57.358Z,26.55
2018-03-23T05:50:23.950Z,29.58
2018-03-23T05:52:50.163Z,28.35
2018-03-23T05:55:16.391Z,30.25
2018-03-23T05:57:42.634Z,27.25
2018-03-23T06:00:10.222Z,28.58
2018-03-23T06:02:36.444Z,27.25
2018-03-23T06:05:02.686Z,25.10
2018-03-23T06:07:29.687Z,29.50
2018-03-23T06:09:56.160Z,31.00
2018-03-23T06:12:22.771Z,29.55
2018-03-23T06:14:48.971Z,29.05
2018-03-23T06:17:15.447Z,25.40
2018-03-23T06:19:41.647Z,31.15
2018-03-23T06:22:07.832Z,30.67
2018-03-23T06:24:34.042Z,29.42
2018-03-23T06:27:00.610Z,29.45
2018-03-23T06:29:26.811Z,30.67
2018-03-23T06:31:53.380Z,32.10
2018-03-23T06:34:19.606Z,31.27
2018-03-23T06:36:45.797Z,31.17
2018-03-23T06:39:12.794Z,28.42
2018-03-23T06:41:39.027Z,29.90
2018-03-23T06:44:05.212Z,31.58
2018-03-23T06:46:31.439Z,30.60
2018-03-23T06:48:57.626Z,29.12
2018-03-23T06:51:23.831Z,34.97
2018-03-23T06:53:50.046Z,39.85
2018-03-23T06:56:16.235Z,36.97
2018-03-23T06:58:42.796Z,41.60
2018-03-23T07:01:09.011Z,47.17
2018-03-23T07:03:35.212Z,42.42
2018-03-23T07:06:01.396Z,39.70
2018-03-23T07:08:27.609Z,35.85
2018-03-23T07:10:53.846Z,40.60
2018-03-23T07:13:20.053Z,33.65
2018-03-23T07:15:46.268Z,39.75
2018-03-23T07:18:12.856Z,32.78
2018-03-23T07:20:39.578Z,37.13
2018-03-23T07:23:06.208Z,37.70
2018-03-23T07:25:32.426Z,37.70
2018-03-23T07:27:58.627Z,36.47
2018-03-23T07:30:25.208Z,32.35
2018-03-23T07:32:51.426Z,33.67
2018-03-23T07:35:17.610Z,33.90
2018-03-23T07:37:43.872Z,31.95
2018-03-23T07:40:10.098Z,35.92
2018-03-23T07:42:36.288Z,28.65
2018-03-23T07:45:02.571Z,39.80
2018-03-23T07:47:28.744Z,36.33
2018-03-23T07:49:54.974Z,34.15
2018-03-23T07:52:21.950Z,31.67
2018-03-23T07:54:49.562Z,33.58
2018-03-23T07:57:15.747Z,32.33
2018-03-23T07:59:41.950Z,34.35
2018-03-23T08:02:08.166Z,32.63
2018-03-23T08:04:34.438Z,34.72
2018-03-23T08:07:00.691Z,40.72
2018-03-23T08:09:27.395Z,34.78
2018-03-23T08:11:53.693Z,26.50
2018-03-23T08:14:19.885Z,33.35
2018-03-23T08:16:46.127Z,35.72
2018-03-23T08:19:12.865Z,36.30
2018-03-23T08:21:39.103Z,34.80
2018-03-23T08:24:05.974Z,36.65
2018-03-23T08:26:32.613Z,35.63
2018-03-23T08:28:59.210Z,34.72
2018-03-23T08:31:25.491Z,33.40
2018-03-23T08:33:51.743Z,34.35
2018-03-23T08:36:17.981Z,37.38
2018-03-23T08:38:44.193Z,36.65
2018-03-23T08:41:10.724Z,36.90
2018-03-23T08:43:36.960Z,41.25
2018-03-23T08:46:10.138Z,42.30
2018-03-23T08:48:36.414Z,52.22
2018-03-23T08:51:02.660Z,55.42
2018-03-23T08:53:29.401Z,56.80
2018-03-23T08:55:55.635Z,59.33
2018-03-23T08:58:21.875Z,58.87
2018-03-23T09:00:48.110Z,64.93
2018-03-23T09:03:14.366Z,74.37
2018-03-23T09:05:40.888Z,59.92
2018-03-23T09:08:13.982Z,62.83
2018-03-23T09:10:40.216Z,56.15
2018-03-23T09:13:06.516Z,48.10
2018-03-23T09:15:32.738Z,32.95
2018-03-23T09:17:58.968Z,41.37
2018-03-23T09:20:25.600Z,34.70
2018-03-23T09:22:52.175Z,34.90
2018-03-23T09:25:18.954Z,31.77
2018-03-23T09:27:45.175Z,32.15
2018-03-23T09:30:11.420Z,32.28
2018-03-23T09:32:37.641Z,30.58
2018-03-23T09:35:03.890Z,31.20
2018-03-23T09:37:30.134Z,34.85
2018-03-23T09:39:56.388Z,27.60
2018-03-23T09:42:22.689Z,26.40
2018-03-23T09:44:48.914Z,26.35
2018-03-23T09:47:15.161Z,22.50
2018-03-23T09:49:41.387Z,19.98
2018-03-23T09:52:07.662Z,22.75
2018-03-23T09:54:33.875Z,23.15
2018-03-23T09:57:00.102Z,25.45
2018-03-23T09:59:26.308Z,23.10
2018-03-23T10:01:52.573Z,25.33
2018-03-23T10:04:18.781Z,23.15
2018-03-23T10:06:44.999Z,21.17
2018-03-23T10:09:11.237Z,25.02
2018-03-23T10:11:37.454Z,25.20
2018-03-23T10:14:03.753Z,22.10
2018-03-23T10:16:30.040Z,30.83
2018-03-23T10:18:56.248Z,24.90
2018-03-23T10:21:22.505Z,20.70
2018-03-23T10:23:48.735Z,23.23
2018-03-23T10:26:15.763Z,22.75
2018-03-23T10:28:42.066Z,22.37
2018-03-23T10:31:08.288Z,22.05
2018-03-23T10:33:34.507Z,18.25
2018-03-23T10:36:00.731Z,19.08
2018-03-23T10:38:27.034Z,17.52
2018-03-23T10:40:53.252Z,19.08
2018-03-23T10:43:19.529Z,17.45
2018-03-23T10:45:45.838Z,18.67
2018-03-23T10:48:12.085Z,16.45
2018-03-23T10:50:38.303Z,18.98
2018-03-23T10:53:04.885Z,19.75
2018-03-23T10:55:31.156Z,17.50
2018-03-23T10:57:57.787Z,15.95
2018-03-23T11:00:30.398Z,17.25
2018-03-23T11:02:56.676Z,20.37
2018-03-23T11:05:22.917Z,22.02
2018-03-23T11:07:49.153Z,18.62
2018-03-23T11:10:15.379Z,16.30
2018-03-23T11:12:41.601Z,17.25
2018-03-23T11:15:07.865Z,17.75
2018-03-23T11:17:34.088Z,20.65
2018-03-23T11:20:00.312Z,16.50
2018-03-23T11:22:26.575Z,19.25
2018-03-23T11:24:54.104Z,16.40
2018-03-23T11:27:20.340Z,17.75
2018-03-23T11:29:46.601Z,17.20
2018-03-23T11:32:13.170Z,16.45
2018-03-23T11:34:39.411Z,16.27
2018-03-23T11:37:05.759Z,17.55
2018-03-23T11:39:32.354Z,16.90
2018-03-23T11:41:58.586Z,17.92
2018-03-23T11:44:24.870Z,15.07
2018-03-23T11:46:51.125Z,18.23
2018-03-23T11:49:17.340Z,19.17
2018-03-23T11:51:43.611Z,19.23
2018-03-23T11:54:10.283Z,19.67
2018-03-23T11:56:36.547Z,17.95
2018-03-23T11:59:02.808Z,22.25
2018-03-23T12:01:29.703Z,16.45
2018-03-23T12:03:55.945Z,19.55
2018-03-23T12:06:22.210Z,20.25
2018-03-23T12:08:49.123Z,22.52
2018-03-23T12:11:15.389Z,19.55
2018-03-23T12:13:41.648Z,17.00
2018-03-23T12:16:08.204Z,14.87
2018-03-23T12:18:34.450Z,15.15
2018-03-23T12:21:00.963Z,17.20
2018-03-23T12:23:27.241Z,17.00
2018-03-23T12:25:53.805Z,17.80
2018-03-23T12:28:20.061Z,15.00
2018-03-23T12:30:46.370Z,16.85
2018-03-23T12:33:12.611Z,13.60
2018-03-23T12:35:38.846Z,16.35
2018-03-23T12:38:05.146Z,15.82
2018-03-23T12:40:31.376Z,15.63
2018-03-23T12:42:57.649Z,13.05
2018-03-23T12:45:23.932Z,18.27
2018-03-23T12:47:50.186Z,16.92
2018-03-23T12:50:16.464Z,13.30
2018-03-23T12:52:43.051Z,14.15
2018-03-23T12:55:09.271Z,16.65
2018-03-23T12:57:35.536Z,13.82
2018-03-23T13:00:01.746Z,16.77
2018-03-23T13:02:27.961Z,16.52
2018-03-23T13:04:54.263Z,16.95
2018-03-23T13:07:20.517Z,15.70
2018-03-23T13:09:46.847Z,13.45
2018-03-23T13:12:13.115Z,15.02
2018-03-23T13:14:40.007Z,14.07
2018-03-23T13:17:06.536Z,14.38
2018-03-23T13:19:33.746Z,11.57
2018-03-23T13:21:59.993Z,13.62
2018-03-23T13:24:26.232Z,12.65
2018-03-23T13:26:52.759Z,12.90
2018-03-23T13:29:18.997Z,11.43
2018-03-23T13:31:45.234Z,11.32
2018-03-23T13:34:11.472Z,11.30
2018-03-23T13:36:37.706Z,14.15
2018-03-23T13:39:04.596Z,12.95
2018-03-23T13:41:30.884Z,11.45
2018-03-23T13:43:57.176Z,10.80
2018-03-23T13:46:23.891Z,11.35
2018-03-23T13:48:50.341Z,8.98
2018-03-23T13:51:16.590Z,10.80
2018-03-23T13:53:42.852Z,10.20
2018-03-23T13:56:09.276Z,8.57
2018-03-23T13:58:44.717Z,9.15
2018-03-23T14:01:17.349Z,8.35
2018-03-23T14:03:43.952Z,7.85
2018-03-23T14:06:10.191Z,10.65
2018-03-23T14:08:36.762Z,8.70
2018-03-23T14:11:03.036Z,9.45
2018-03-23T14:13:29.317Z,8.75
2018-03-23T14:15:55.950Z,9.52
2018-03-23T14:18:22.546Z,9.07
2018-03-23T14:20:48.769Z,9.88
2018-03-23T14:23:15.039Z,10.45
2018-03-23T14:25:41.620Z,9.95
2018-03-23T14:28:07.871Z,10.93
2018-03-23T14:30:34.106Z,10.60
2018-03-23T14:33:00.367Z,11.80
2018-03-23T14:35:26.585Z,10.73
2018-03-23T14:37:53.223Z,16.77
2018-03-23T14:40:19.823Z,15.23
2018-03-23T14:42:46.053Z,12.15
2018-03-23T14:45:12.297Z,12.80
2018-03-23T14:47:38.530Z,12.98
2018-03-23T14:50:04.793Z,11.15
2018-03-23T14:52:31.035Z,12.45
2018-03-23T14:54:57.235Z,11.60
2018-03-23T14:57:23.829Z,12.27
2018-03-23T14:59:50.064Z,10.65
2018-03-23T15:02:16.290Z,14.45
2018-03-23T15:04:42.562Z,11.55
2018-03-23T15:07:09.190Z,13.60
2018-03-23T15:09:36.672Z,18.77
2018-03-23T15:12:03.053Z,13.82
2018-03-23T15:14:29.338Z,13.18
2018-03-23T15:16:55.610Z,15.50
2018-03-23T15:19:22.306Z,13.85
2018-03-23T15:21:48.576Z,15.07
2018-03-23T15:24:14.886Z,12.68
2018-03-23T15:26:41.179Z,12.70
2018-03-23T15:29:07.558Z,13.25
2018-03-23T15:31:33.856Z,13.18
2018-03-23T15:34:00.108Z,13.18
2018-03-23T15:36:26.347Z,12.00
2018-03-23T15:38:53.781Z,14.23
2018-03-23T15:41:20.051Z,13.32
2018-03-23T15:43:46.334Z,14.65
2018-03-23T15:46:13.301Z,14.30
2018-03-23T15:48:39.551Z,14.02
2018-03-23T15:51:05.855Z,14.80
2018-03-23T15:53:32.090Z,15.07
2018-03-23T15:55:58.371Z,15.30
2018-03-23T15:58:25.206Z,15.40
2018-03-23T16:00:51.515Z,15.05
2018-03-23T16:03:18.168Z,14.30
2018-03-23T16:05:44.790Z,13.65
2018-03-23T16:08:11.459Z,14.80
2018-03-23T16:10:37.735Z,13.85
2018-03-23T16:13:03.967Z,16.60
2018-03-23T16:15:30.238Z,16.52
2018-03-23T16:17:56.546Z,16.25
2018-03-23T16:20:22.804Z,14.68
2018-03-23T16:22:49.082Z,14.40
2018-03-23T16:25:15.400Z,16.08
2018-03-23T16:27:41.680Z,16.15
2018-03-23T16:30:08.327Z,14.23
2018-03-23T16:32:34.552Z,16.40
2018-03-23T16:35:00.842Z,13.60
2018-03-23T16:37:27.093Z,17.10
2018-03-23T16:39:53.361Z,15.38
2018-03-23T16:42:19.631Z,16.35
2018-03-23T16:44:45.873Z,16.02
2018-03-23T16:47:13.441Z,14.57
2018-03-23T16:49:39.753Z,19.73
2018-03-23T16:52:06.376Z,16.08
2018-03-23T16:54:32.626Z,17.50
2018-03-23T16:56:58.869Z,14.85
2018-03-23T16:59:25.126Z,16.55
2018-03-23T17:01:51.333Z,18.00
2018-03-23T17:04:17.553Z,19.20
2018-03-23T17:06:44.170Z,15.65
2018-03-23T17:09:10.424Z,16.60
2018-03-23T17:11:36.635Z,18.48
2018-03-23T17:14:02.951Z,20.88
2018-03-23T17:16:29.260Z,17.62
2018-03-23T17:18:55.522Z,17.15
2018-03-23T17:21:22.142Z,17.30
2018-03-23T17:23:48.413Z,15.80
2018-03-23T17:26:15.313Z,16.15
2018-03-23T17:28:41.651Z,15.63
2018-03-23T17:31:07.935Z,16.30
2018-03-23T17:33:34.173Z,14.23
2018-03-23T17:36:00.436Z,17.05
2018-03-23T17:38:26.686Z,16.23
2018-03-23T17:40:53.367Z,14.90
2018-03-23T17:43:20.388Z,16.15
2018-03-23T17:45:46.619Z,16.73
2018-03-23T17:48:12.922Z,18.17
2018-03-23T17:50:39.151Z,16.85
2018-03-23T17:53:05.808Z,17.60
2018-03-23T17:55:32.580Z,17.37
2018-03-23T17:57:59.047Z,16.35
2018-03-23T18:00:25.591Z,16.55
2018-03-23T18:02:52.018Z,16.12
2018-03-23T18:05:18.272Z,18.50
2018-03-23T18:07:45.138Z,14.70
2018-03-23T18:10:11.388Z,13.23
2018-03-23T18:12:37.858Z,14.30
2018-03-23T18:15:04.118Z,14.55
2018-03-23T18:17:30.409Z,14.45
2018-03-23T18:19:56.652Z,14.75
2018-03-23T18:22:23.257Z,14.98
2018-03-23T18:24:49.815Z,14.07
2018-03-23T18:27:16.025Z,15.73
2018-03-23T18:29:42.306Z,14.30
2018-03-23T18:32:08.569Z,15.45
2018-03-23T18:34:34.948Z,14.63
2018-03-23T18:37:01.381Z,15.60
2018-03-23T18:39:28.200Z,13.65
2018-03-23T18:41:54.482Z,16.92
2018-03-23T18:44:20.719Z,14.52
2018-03-23T18:46:47.265Z,15.23
2018-03-23T18:49:13.495Z,15.23
2018-03-23T18:51:39.754Z,14.10
2018-03-23T18:54:05.987Z,13.77
2018-03-23T18:56:32.200Z,13.45
2018-03-23T18:58:58.424Z,14.93
2018-03-23T19:01:24.664Z,12.48
2018-03-23T19:03:50.954Z,14.20
2018-03-23T19:06:17.194Z,19.25
2018-03-23T19:08:43.433Z,13.43
2018-03-23T19:11:09.728Z,13.82
2018-03-23T19:13:35.990Z,15.95
2018-03-23T19:16:02.269Z,14.52
2018-03-23T19:18:28.543Z,15.65
2018-03-23T19:20:54.834Z,13.20
2018-03-23T19:23:21.155Z,14.52
2018-03-23T19:25:47.376Z,16.20
2018-03-23T19:28:13.655Z,15.75
2018-03-23T19:30:39.908Z,15.15
2018-03-23T19:33:06.138Z,14.02
2018-03-23T19:35:32.405Z,13.45
2018-03-23T19:37:58.703Z,18.02
2018-03-23T19:40:25.013Z,15.90
2018-03-23T19:42:51.301Z,19.08
2018-03-23T19:45:17.575Z,20.05
2018-03-23T19:47:43.837Z,16.30
2018-03-23T19:50:10.105Z,16.30
2018-03-23T19:52:36.430Z,15.75
2018-03-23T19:55:02.709Z,14.90
2018-03-23T19:57:29.013Z,15.73
2018-03-23T19:59:55.594Z,15.52
2018-03-23T20:02:22.212Z,16.58
2018-03-23T20:04:48.492Z,15.60
2018-03-23T20:07:15.035Z,16.27
2018-03-23T20:09:41.297Z,18.05
2018-03-23T20:12:07.556Z,17.35
2018-03-23T20:14:34.192Z,15.13
2018-03-23T20:17:00.457Z,15.40
2018-03-23T20:19:26.671Z,16.67
2018-03-23T20:21:52.938Z,17.95
2018-03-23T20:24:25.317Z,16.85
2018-03-23T20:26:51.578Z,21.33
2018-03-23T20:29:18.290Z,21.50
2018-03-23T20:31:50.679Z,19.90
2018-03-23T20:34:16.945Z,18.00
2018-03-23T20:36:43.199Z,18.17
2018-03-23T20:39:09.463Z,17.33
2018-03-23T20:41:36.188Z,17.62
2018-03-23T20:44:02.452Z,17.80
2018-03-23T20:46:28.737Z,17.50
2018-03-23T20:48:55.008Z,14.90
2018-03-23T20:51:21.226Z,15.77
2018-03-23T20:53:47.901Z,18.48
2018-03-23T20:56:14.506Z,15.25
2018-03-23T20:58:41.151Z,16.30
2018-03-23T21:01:07.420Z,22.70
2018-03-23T21:03:34.700Z,20.98
2018-03-23T21:06:00.980Z,17.00
2018-03-23T21:08:27.300Z,19.10
2018-03-23T21:13:28.527Z,18.00
2018-03-23T21:15:54.802Z,19.02
2018-03-23T21:18:21.095Z,19.12
2018-03-23T21:20:47.385Z,20.10
2018-03-23T21:23:13.635Z,21.65
2018-03-23T21:25:39.982Z,23.10
2018-03-23T21:28:06.189Z,24.12
2018-03-23T21:30:32.432Z,19.60
2018-03-23T21:32:58.733Z,17.15
2018-03-23T21:35:24.978Z,18.25
2018-03-23T21:37:51.622Z,16.35
2018-03-23T21:40:18.054Z,17.15
2018-03-23T21:42:44.282Z,18.02
2018-03-23T21:45:10.515Z,17.92
2018-03-23T21:47:36.761Z,18.73
2018-03-23T21:50:05.877Z,19.15
2018-03-23T21:52:32.118Z,18.83
2018-03-23T21:54:58.448Z,19.35
2018-03-23T21:57:24.715Z,21.27
2018-03-23T21:59:50.927Z,16.30
2018-03-23T22:02:17.220Z,21.50
2018-03-23T22:04:43.475Z,20.70
2018-03-23T22:07:09.707Z,22.35
2018-03-23T22:09:35.973Z,18.52
2018-03-23T22:12:02.625Z,20.80
2018-03-23T22:14:28.842Z,18.17
2018-03-23T22:16:55.506Z,20.17
2018-03-23T22:19:21.784Z,19.42
2018-03-23T22:21:48.051Z,18.77
2018-03-23T22:24:14.648Z,20.80
2018-03-23T22:26:40.910Z,20.65
2018-03-23T22:29:07.561Z,18.50
2018-03-23T22:31:33.805Z,21.00
2018-03-23T22:34:00.412Z,20.10
2018-03-23T22:36:27.052Z,19.12
2018-03-23T22:38:53.669Z,19.95
2018-03-23T22:41:19.947Z,20.08
2018-03-23T22:43:46.193Z,21.42
2018-03-23T22:46:12.416Z,19.55
2018-03-23T22:48:38.701Z,24.77
2018-03-23T22:51:04.950Z,26.75
2018-03-23T22:53:31.196Z,35.28
2018-03-23T22:55:57.431Z,43.10
2018-03-23T22:58:23.697Z,38.15
2018-03-23T23:00:49.921Z,41.65
2018-03-23T23:03:16.146Z,43.87
2018-03-23T23:05:42.392Z,32.67
2018-03-23T23:08:09.003Z,24.50
2018-03-23T23:10:35.219Z,31.15
2018-03-23T23:13:01.433Z,24.95
2018-03-23T23:15:27.662Z,33.97
2018-03-23T23:17:53.955Z,22.55
2018-03-23T23:20:20.596Z,28.98
2018-03-23T23:22:47.193Z,31.12
2018-03-23T23:25:13.452Z,33.67
2018-03-23T23:27:40.073Z,28.10
2018-03-23T23:30:06.335Z,29.37
2018-03-23T23:32:32.565Z,27.23
2018-03-23T23:34:58.832Z,29.05
2018-03-23T23:37:25.072Z,31.45
2018-03-23T23:39:51.292Z,44.13
2018-03-23T23:42:17.537Z,33.90
2018-03-23T23:44:43.746Z,29.87
2018-03-23T23:47:09.956Z,38.55
2018-03-23T23:49:36.200Z,40.80
2018-03-23T23:52:02.410Z,46.70
2018-03-23T23:54:28.636Z,49.63
2018-03-23T23:56:55.211Z,35.30
2018-03-23T23:59:21.448Z,38.58
